Upcoming Events

Stay tuned here for upcoming events!

  Top Controllers this Month

Thomas Smith 1505007

Simon Brown 1612627

Peter Maziarz 1072542

Ryland Kruk 1186526

Tony Koch 1106668

  Online Controllers

No controllers online.

  View Our Airspace

  Weather

CYYC - Calgary International Airport   VFR
CYYC 300700Z 32011G19KT 15SM FEW025 BKN043 BKN074 11/08 A3009 RMK SC2SC3AC2 SLP200 DENSITY ALT 3900FT

CYEG - Edmonton International Airport   VFR
CYEG 300700Z 22005KT 20SM FEW110 09/08 A3003 RMK AC2 SLP178

CYXY - Whitehorse / Erik Nielsen International Airport   VFR
CYXY 300700Z 17003KT 120V180 40SM FEW075 SCT120 BKN220 16/10 A3007 RMK AC2AC2CI1 SLP191 DENSITY ALT 2900FT

CYZF - Yellowknife International Airport   VFR
CYZF 300700Z 05004KT 15SM BKN066 BKN240 11/07 A3001 RMK AC6CI1 CI TR SLP174

CYMM - Fort McMurray Airport   VFR
CYMM 300700Z AUTO 26004KT 9SM CLR 08/01 A2995 RMK SLP155

CYQF - Red Deer Regional Airport   VFR
CYQF 300700Z AUTO 30010G15KT 9SM FEW045 BKN071 BKN100 12/11 A3007 RMK SLP193 DENSITY ALT 3100FT

CZVL - Edmonton / Villeneuve Airport   VFR
CZVL 300700Z AUTO 28008KT 9SM FEW086 14/12 A3001 RMK SLP167 DENSITY ALT 2600FT

CYBW - Calgary / Springbank Airport   MVFR
CYBW 300709Z AUTO 30008KT 9SM OVC029 10/08 A3011 RMK SLP217 DENSITY ALT 4100FT

CYOD - CFB Cold Lake   VFR
CYOD 300700Z 02004KT 15SM SKC 12/05 A2996 RMK DENSITY ALT 1903FT SLP154